createdAt,value
2022-10-22T00:00:55.877Z,100002.63
2022-10-22T00:04:57.510Z,99996.69
2022-10-22T00:08:59.162Z,99988.06
2022-10-22T00:13:00.719Z,99976.03
2022-10-22T00:17:02.445Z,99979.78
2022-10-22T00:21:05.414Z,99983.38
2022-10-22T00:25:07.503Z,99976.28
2022-10-22T00:29:09.274Z,99965.22
2022-10-22T00:33:10.852Z,99947.53
2022-10-22T00:37:12.608Z,99953.81
2022-10-22T00:41:14.689Z,99948.41
2022-10-22T00:45:27.383Z,99956.56
2022-10-22T00:49:29.134Z,99954.56
2022-10-22T00:53:39.977Z,99951.59
2022-10-22T00:57:42.583Z,99950.97
2022-10-22T01:01:45.144Z,99947.97
2022-10-22T01:05:58.283Z,99951.38
2022-10-22T01:10:29.309Z,99959.59
2022-10-22T01:15:06.304Z,99954.38
2022-10-22T01:19:32.124Z,99958.94
2022-10-22T01:23:45.778Z,99957.34
2022-10-22T01:28:14.469Z,99962.47
2022-10-22T01:32:23.149Z,99959.25
2022-10-22T01:36:25.906Z,99966.56
2022-10-22T01:40:28.984Z,99956.69
2022-10-22T01:44:33.155Z,99957.94
2022-10-22T01:48:58.014Z,99955.53
2022-10-22T01:52:59.565Z,99949.34
2022-10-22T01:57:12.717Z,99958.28
2022-10-22T02:01:23.108Z,99946.38
2022-10-22T02:05:36.298Z,99952.63
2022-10-22T02:09:40.942Z,99956.91
2022-10-22T02:13:46.947Z,99955.63
2022-10-22T02:17:50.620Z,99950.06
2022-10-22T02:21:53.838Z,99950.28
2022-10-22T02:26:06.063Z,99943.28
2022-10-22T02:30:07.834Z,99938.38
2022-10-22T02:34:14.621Z,99931.34
2022-10-22T02:38:17.011Z,99936.47
2022-10-22T02:42:18.728Z,99931.47
2022-10-22T02:46:20.953Z,99933.47
2022-10-22T02:50:22.868Z,99952.19
2022-10-22T02:54:24.489Z,99930.50
2022-10-22T02:58:26.051Z,99940.53
2022-10-22T03:02:27.497Z,99938.16
2022-10-22T03:06:29.093Z,99948.91
2022-10-22T03:10:30.749Z,99950.28
2022-10-22T03:14:32.249Z,99954.75
2022-10-22T03:18:33.829Z,99950.28
2022-10-22T03:22:38.052Z,99946.03
2022-10-22T03:26:42.032Z,99937.31
2022-10-22T03:30:43.572Z,99955.84
2022-10-22T03:34:45.362Z,99945.94
2022-10-22T03:38:47.300Z,99958.78
2022-10-22T03:42:48.913Z,99952.97
2022-10-22T03:46:50.716Z,99955.94
2022-10-22T03:50:52.323Z,99962.41
2022-10-22T03:54:53.968Z,99969.03
2022-10-22T03:58:57.734Z,99968.59
2022-10-22T04:02:59.209Z,99965.06
2022-10-22T04:07:00.982Z,99962.59
2022-10-22T04:11:02.677Z,99963.91
2022-10-22T04:15:05.048Z,99959.22
2022-10-22T04:19:07.052Z,99963.19
2022-10-22T04:23:08.626Z,99972.72
2022-10-22T04:27:10.142Z,99972.09
2022-10-22T04:31:14.174Z,99980.50
2022-10-22T04:35:15.769Z,99983.16
2022-10-22T04:39:17.433Z,99973.03
2022-10-22T04:43:19.062Z,99969.88
2022-10-22T04:47:20.764Z,99969.97
2022-10-22T04:51:24.484Z,99969.53
2022-10-22T04:55:26.247Z,99962.31
2022-10-22T04:59:27.820Z,99956.47
2022-10-22T05:03:29.321Z,99965.84
2022-10-22T05:07:30.767Z,99960.94
2022-10-22T05:11:35.416Z,99964.47
2022-10-22T05:15:36.900Z,99956.47
2022-10-22T05:19:38.385Z,99961.38
2022-10-22T05:23:40.133Z,99969.78
2022-10-22T05:27:42.044Z,99983.50
2022-10-22T05:31:43.731Z,99997.66
2022-10-22T05:35:46.789Z,99990.19
2022-10-22T05:39:51.748Z,99998.91
2022-10-22T05:43:59.670Z,100005.16
2022-10-22T05:48:01.177Z,99991.34
2022-10-22T05:52:02.838Z,99989.78
2022-10-22T05:56:08.041Z,100002.00
2022-10-22T06:00:12.837Z,100010.72
2022-10-22T06:04:17.905Z,100012.63
2022-10-22T06:08:22.059Z,100015.41
2022-10-22T06:12:23.982Z,100030.22
2022-10-22T06:16:28.315Z,100032.22
2022-10-22T06:20:29.899Z,100043.09
2022-10-22T06:24:31.631Z,100031.19
2022-10-22T06:28:34.417Z,100033.50
2022-10-22T06:32:39.246Z,100033.50
2022-10-22T06:36:42.723Z,100039.69
2022-10-22T06:40:45.210Z,100050.09
2022-10-22T06:44:46.942Z,100059.88
2022-10-22T06:48:50.901Z,100066.28
2022-10-22T06:52:52.380Z,100074.38
2022-10-22T06:56:54.220Z,100080.03
2022-10-22T07:01:04.735Z,100066.28
2022-10-22T07:05:07.201Z,100092.91
2022-10-22T07:09:08.927Z,100089.59
2022-10-22T07:13:10.659Z,100098.00
2022-10-22T07:17:12.174Z,100105.66
2022-10-22T07:21:16.454Z,100108.88
2022-10-22T07:25:17.971Z,100109.50
2022-10-22T07:29:19.495Z,100119.72
2022-10-22T07:33:21.228Z,100126.41
2022-10-22T07:37:22.879Z,100121.63
2022-10-22T07:41:26.418Z,100137.03
2022-10-22T07:45:28.338Z,100146.06
2022-10-22T07:49:29.926Z,100145.44
2022-10-22T07:53:31.772Z,100149.78
2022-10-22T07:57:33.277Z,100162.63
2022-10-22T08:01:35.022Z,100176.59
2022-10-22T08:05:36.615Z,100176.91
2022-10-22T08:09:38.135Z,100182.34
2022-10-22T08:13:44.830Z,100178.31
2022-10-22T08:17:47.173Z,100183.84
2022-10-22T08:21:48.680Z,100180.38
2022-10-22T08:25:50.612Z,100184.53
2022-10-22T08:29:52.320Z,100185.63
2022-10-22T08:33:53.932Z,100180.56
2022-10-22T08:37:55.605Z,100171.81
2022-10-22T08:42:26.085Z,100182.94
2022-10-22T08:46:32.997Z,100184.13
2022-10-22T08:51:00.864Z,100172.63
2022-10-22T08:55:04.166Z,100173.78
2022-10-22T08:59:21.369Z,100186.25
2022-10-22T09:03:27.655Z,100190.91
2022-10-22T09:07:29.338Z,100189.75
2022-10-22T09:11:37.607Z,100191.75
2022-10-22T09:15:40.818Z,100193.47
2022-10-22T09:20:09.192Z,100194.06
2022-10-22T09:24:32.871Z,100195.00
2022-10-22T09:28:34.936Z,100200.84
2022-10-22T09:32:36.501Z,100200.66
2022-10-22T09:36:38.037Z,100187.28
2022-10-22T09:40:50.530Z,100194.03
2022-10-22T09:44:55.004Z,100195.38
2022-10-22T09:49:03.402Z,100193.81
2022-10-22T09:53:14.051Z,100194.00
2022-10-22T09:57:22.016Z,100195.31
2022-10-22T10:01:33.758Z,100190.81
2022-10-22T10:05:37.534Z,100199.09
2022-10-22T10:09:39.545Z,100212.91
2022-10-22T10:13:46.285Z,100210.16
2022-10-22T10:18:00.041Z,100212.72
2022-10-22T10:22:18.016Z,100217.63
2022-10-22T10:26:31.541Z,100227.34
2022-10-22T10:30:38.676Z,100222.25
2022-10-22T10:35:02.851Z,100221.94
2022-10-22T10:39:23.989Z,100219.91
2022-10-22T10:43:30.427Z,100218.28
2022-10-22T10:48:09.919Z,100225.16
2022-10-22T10:53:04.412Z,100219.59
2022-10-22T10:57:22.031Z,100214.00
2022-10-22T11:01:36.085Z,100227.03
2022-10-22T11:05:50.171Z,100224.28
2022-10-22T11:10:02.207Z,100231.66
2022-10-22T11:14:13.932Z,100225.78
2022-10-22T11:18:28.362Z,100221.72
2022-10-22T11:23:06.592Z,100226.13
2022-10-22T11:27:19.693Z,100237.63
2022-10-22T11:31:24.779Z,100221.25
2022-10-22T11:35:31.450Z,100226.66
2022-10-22T11:39:42.116Z,100226.38
2022-10-22T11:44:03.033Z,100222.16
2022-10-22T11:48:10.390Z,100226.34
2022-10-22T11:52:45.621Z,100217.16
2022-10-22T11:56:47.204Z,100222.09
2022-10-22T12:00:49.466Z,100214.13
2022-10-22T12:04:51.107Z,100214.13
2022-10-22T12:08:52.877Z,100213.72
2022-10-22T12:13:10.991Z,100211.44
2022-10-22T12:17:16.171Z,100209.75
2022-10-22T12:21:17.729Z,100211.50
2022-10-22T12:25:23.681Z,100201.06
2022-10-22T12:29:26.560Z,100203.81
2022-10-22T12:33:32.617Z,100212.94
2022-10-22T12:37:38.008Z,100197.41
2022-10-22T12:41:40.478Z,100215.16
2022-10-22T12:45:44.890Z,100206.31
2022-10-22T12:49:49.183Z,100204.47
2022-10-22T12:53:53.161Z,100209.66
2022-10-22T12:57:54.814Z,100207.84
2022-10-22T13:01:56.935Z,100209.34
2022-10-22T13:06:23.937Z,100211.91
2022-10-22T13:10:32.220Z,100213.00
2022-10-22T13:14:38.060Z,100217.09
2022-10-22T13:18:40.889Z,100224.44
2022-10-22T13:23:04.999Z,100205.03
2022-10-22T13:27:09.425Z,100219.47
2022-10-22T13:31:20.266Z,100213.91
2022-10-22T13:35:26.327Z,100216.16
2022-10-22T13:39:27.839Z,100215.94
2022-10-22T13:43:29.359Z,100212.63
2022-10-22T13:47:31.084Z,100206.28
2022-10-22T13:51:35.322Z,100211.81
2022-10-22T13:55:36.838Z,100214.69
2022-10-22T13:59:38.321Z,100206.25
2022-10-22T14:03:40.498Z,100205.81
2022-10-22T14:07:42.226Z,100206.53
2022-10-22T14:11:44.043Z,100204.25
2022-10-22T14:15:48.162Z,100214.28
2022-10-22T14:19:49.865Z,100201.75
2022-10-22T14:23:52.780Z,100211.31
2022-10-22T14:27:54.710Z,100201.44
2022-10-22T14:31:56.445Z,100206.31
2022-10-22T14:35:59.690Z,100206.34
2022-10-22T14:40:02.506Z,100209.66
2022-10-22T14:44:04.461Z,100215.06
2022-10-22T14:48:06.477Z,100220.38
2022-10-22T14:52:10.580Z,100219.97
2022-10-22T14:56:16.717Z,100222.47
2022-10-22T15:00:18.628Z,100223.22
2022-10-22T15:04:20.167Z,100228.75
2022-10-22T15:08:21.768Z,100229.75
2022-10-22T15:12:23.336Z,100232.72
2022-10-22T15:16:25.678Z,100240.22
2022-10-22T15:20:27.339Z,100235.75
2022-10-22T15:24:28.900Z,100237.66
2022-10-22T15:28:30.381Z,100246.50
2022-10-22T15:32:33.595Z,100251.63
2022-10-22T15:36:35.180Z,100267.88
2022-10-22T15:40:36.844Z,100262.19
2022-10-22T15:44:39.826Z,100267.97
2022-10-22T15:48:41.919Z,100283.16
2022-10-22T15:52:43.388Z,100288.50
2022-10-22T15:56:45.860Z,100288.38
2022-10-22T16:00:47.451Z,100298.16
2022-10-22T16:04:49.035Z,100302.69
2022-10-22T16:08:50.517Z,100308.63
2022-10-22T16:12:54.411Z,100307.84
2022-10-22T16:16:56.705Z,100315.09
2022-10-22T16:20:58.797Z,100314.50
2022-10-22T16:25:00.311Z,100322.53
2022-10-22T16:29:02.744Z,100327.75
2022-10-22T16:33:06.304Z,100331.84
2022-10-22T16:37:10.239Z,100337.88
2022-10-22T16:41:20.716Z,100349.34
2022-10-22T16:45:22.540Z,100347.78
2022-10-22T16:49:24.270Z,100351.69
2022-10-22T16:53:31.301Z,100357.63
2022-10-22T16:57:34.069Z,100363.84
2022-10-22T17:01:40.598Z,100372.25
2022-10-22T17:05:43.003Z,100369.44
2022-10-22T17:09:44.627Z,100374.41
2022-10-22T17:13:48.939Z,100375.38
2022-10-22T17:17:53.582Z,100379.06
2022-10-22T17:21:58.362Z,100383.41
2022-10-22T17:26:08.187Z,100398.09
2022-10-22T17:30:17.270Z,100393.09
2022-10-22T17:34:18.857Z,100406.41
2022-10-22T17:38:20.489Z,100410.03
2022-10-22T17:42:22.086Z,100419.50
2022-10-22T17:46:26.090Z,100412.00
2022-10-22T17:50:30.484Z,100429.63
2022-10-22T17:54:33.341Z,100433.94
2022-10-22T17:58:34.903Z,100435.16
2022-10-22T18:02:36.561Z,100448.13
2022-10-22T18:06:38.195Z,100448.75
2022-10-22T18:10:41.265Z,100447.59
2022-10-22T18:14:47.079Z,100452.63
2022-10-22T18:19:02.645Z,100451.97
2022-10-22T18:23:05.439Z,100460.22
2022-10-22T18:27:07.651Z,100470.03
2022-10-22T18:31:12.656Z,100473.44
2022-10-22T18:35:14.230Z,100468.22
2022-10-22T18:39:16.098Z,100467.72
2022-10-22T18:43:18.564Z,100476.25
2022-10-22T18:47:20.099Z,100474.75
2022-10-22T18:51:22.791Z,100469.66
2022-10-22T18:55:28.264Z,100464.09
2022-10-22T18:59:30.617Z,100472.59
2022-10-22T19:03:32.135Z,100472.59
2022-10-22T19:07:36.643Z,100465.78
2022-10-22T19:11:38.446Z,100470.66
2022-10-22T19:15:40.210Z,100464.56
2022-10-22T19:19:44.515Z,100466.50
2022-10-22T19:23:46.385Z,100460.81
2022-10-22T19:27:51.670Z,100474.13
2022-10-22T19:31:53.803Z,100476.63
2022-10-22T19:35:55.662Z,100475.94
2022-10-22T19:39:57.175Z,100482.78
2022-10-22T19:44:00.496Z,100482.81
2022-10-22T19:48:02.104Z,100485.47
2022-10-22T19:52:03.970Z,100483.91
2022-10-22T19:56:08.576Z,100491.84
2022-10-22T20:00:10.863Z,100498.00
2022-10-22T20:04:17.796Z,100506.41
2022-10-22T20:08:19.589Z,100498.50
2022-10-22T20:12:21.052Z,100501.78
2022-10-22T20:16:24.849Z,100510.31
2022-10-22T20:20:26.690Z,100513.75
2022-10-22T20:24:52.448Z,100516.00
2022-10-22T20:28:55.892Z,100509.06
2022-10-22T20:32:57.542Z,100509.28
2022-10-22T20:36:59.036Z,100513.88
2022-10-22T20:41:21.010Z,100534.25
2022-10-22T20:45:22.521Z,100539.78
2022-10-22T20:49:24.305Z,100546.00
2022-10-22T20:53:27.522Z,100536.16
2022-10-22T20:57:29.406Z,100534.91
2022-10-22T21:01:42.775Z,100539.88
2022-10-22T21:05:44.475Z,100538.63
2022-10-22T21:09:46.048Z,100540.41
2022-10-22T21:13:47.642Z,100534.91
2022-10-22T21:17:49.190Z,100548.31
2022-10-22T21:21:50.955Z,100536.75
2022-10-22T21:25:57.402Z,100545.97
2022-10-22T21:29:59.027Z,100553.91
2022-10-22T21:34:00.836Z,100549.06
2022-10-22T21:38:02.378Z,100560.16
2022-10-22T21:42:03.997Z,100557.78
2022-10-22T21:46:08.482Z,100554.28
2022-10-22T21:50:10.348Z,100558.84
2022-10-22T21:54:12.626Z,100564.69
2022-10-22T21:58:14.305Z,100565.91
2022-10-22T22:02:15.875Z,100566.34
2022-10-22T22:06:21.726Z,100564.41
2022-10-22T22:10:26.458Z,100564.03
2022-10-22T22:14:28.147Z,100566.22
2022-10-22T22:18:31.075Z,100563.84
2022-10-22T22:22:33.365Z,100561.19
2022-10-22T22:26:36.150Z,100564.38
2022-10-22T22:30:37.754Z,100562.69
2022-10-22T22:34:39.961Z,100553.72
2022-10-22T22:38:41.986Z,100559.16
2022-10-22T22:42:43.481Z,100563.28
2022-10-22T22:46:45.240Z,100562.84
2022-10-22T22:50:48.166Z,100568.16
2022-10-22T22:54:49.694Z,100563.78
2022-10-22T22:58:51.487Z,100562.41
2022-10-22T23:02:56.007Z,100569.63
2022-10-22T23:06:57.645Z,100565.38
2022-10-22T23:11:08.469Z,100557.53
2022-10-22T23:15:10.702Z,100555.16
2022-10-22T23:19:15.124Z,100555.41
2022-10-22T23:23:16.893Z,100554.97
2022-10-22T23:27:18.462Z,100547.59
2022-10-22T23:31:21.734Z,100563.66
2022-10-22T23:35:23.369Z,100563.72
2022-10-22T23:39:27.174Z,100566.97
2022-10-22T23:43:29.593Z,100564.59
2022-10-22T23:47:31.179Z,100580.78
2022-10-22T23:51:32.740Z,100573.16
2022-10-22T23:55:37.279Z,100574.84
2022-10-22T23:59:38.824Z,100578.47
